createdAt,value
2019-02-10T00:00:47.565Z,998.95
2019-02-10T00:01:47.570Z,998.97
2019-02-10T00:02:47.594Z,998.95
2019-02-10T00:03:47.648Z,998.87
2019-02-10T00:04:47.741Z,998.81
2019-02-10T00:05:47.772Z,998.79
2019-02-10T00:06:47.879Z,998.78
2019-02-10T00:07:47.921Z,998.68
2019-02-10T00:08:47.903Z,998.68
2019-02-10T00:09:47.959Z,998.64
2019-02-10T00:10:48.042Z,998.70
2019-02-10T00:11:48.057Z,998.71
2019-02-10T00:12:48.177Z,998.72
2019-02-10T00:13:48.167Z,998.75
2019-02-10T00:14:48.280Z,998.76
2019-02-10T00:15:48.371Z,998.70
2019-02-10T00:16:48.363Z,998.70
2019-02-10T00:17:48.404Z,998.60
2019-02-10T00:18:48.486Z,998.59
2019-02-10T00:19:48.480Z,998.61
2019-02-10T00:20:48.627Z,998.59
2019-02-10T00:21:48.566Z,998.65
2019-02-10T00:22:48.687Z,998.61
2019-02-10T00:23:48.685Z,998.60
2019-02-10T00:24:48.744Z,998.63
2019-02-10T00:25:48.829Z,998.59
2019-02-10T00:26:48.840Z,998.54
2019-02-10T00:27:48.907Z,998.56
2019-02-10T00:28:48.931Z,998.52
2019-02-10T00:29:49.047Z,998.52
2019-02-10T00:30:49.116Z,998.46
2019-02-10T00:31:49.088Z,998.44
2019-02-10T00:32:49.138Z,998.42
2019-02-10T00:33:49.193Z,998.39
2019-02-10T00:34:49.325Z,998.34
2019-02-10T00:35:49.360Z,998.39
2019-02-10T00:36:49.421Z,998.40
2019-02-10T00:37:49.402Z,998.35
2019-02-10T00:38:49.488Z,998.33
2019-02-10T00:39:49.507Z,998.29
2019-02-10T00:40:49.676Z,998.32
2019-02-10T00:41:49.674Z,998.28
2019-02-10T00:42:49.747Z,998.26
2019-02-10T00:43:49.735Z,998.17
2019-02-10T00:44:49.769Z,998.05
2019-02-10T00:45:49.814Z,998.04
2019-02-10T00:46:49.868Z,998.02
2019-02-10T00:47:49.961Z,998.02
2019-02-10T00:48:50.054Z,998.03
2019-02-10T00:49:50.033Z,998.05
2019-02-10T00:50:50.089Z,998.03
2019-02-10T00:51:50.194Z,997.98
2019-02-10T00:52:50.240Z,997.99
2019-02-10T00:53:50.309Z,997.93
2019-02-10T00:54:50.299Z,997.88
2019-02-10T00:55:50.359Z,997.84
2019-02-10T00:56:50.451Z,997.78
2019-02-10T00:57:50.509Z,997.72
2019-02-10T00:58:50.535Z,997.72
2019-02-10T00:59:50.618Z,997.65
2019-02-10T01:00:50.596Z,997.60
2019-02-10T01:01:50.755Z,997.57
2019-02-10T01:02:50.717Z,997.53
2019-02-10T01:03:50.792Z,997.50
2019-02-10T01:04:50.881Z,997.50
2019-02-10T01:05:50.910Z,997.42
2019-02-10T01:06:51.045Z,997.43
2019-02-10T01:07:50.996Z,997.35
2019-02-10T01:08:51.013Z,997.33
2019-02-10T01:09:51.061Z,997.33
2019-02-10T01:10:51.176Z,997.28
2019-02-10T01:11:51.219Z,997.23
2019-02-10T01:12:51.308Z,997.22
2019-02-10T01:13:51.308Z,997.23
2019-02-10T01:14:51.369Z,997.23
2019-02-10T01:15:51.453Z,997.18
2019-02-10T01:16:51.425Z,997.14
2019-02-10T01:17:51.583Z,997.04
2019-02-10T01:18:51.582Z,996.98
2019-02-10T01:19:51.665Z,996.99
2019-02-10T01:20:51.695Z,996.91
2019-02-10T01:21:51.782Z,996.94
2019-02-10T01:22:52.320Z,996.91
2019-02-10T01:23:51.788Z,996.95
2019-02-10T01:24:52.315Z,996.88
2019-02-10T01:25:51.975Z,996.89
2019-02-10T01:26:52.457Z,996.82
2019-02-10T01:27:52.138Z,996.76
2019-02-10T01:28:52.129Z,996.71
2019-02-10T01:29:52.104Z,996.73
2019-02-10T01:30:52.201Z,996.69
2019-02-10T01:31:52.771Z,996.70
2019-02-10T01:32:52.670Z,996.74
2019-02-10T01:33:52.640Z,996.73
2019-02-10T01:34:52.765Z,996.73
2019-02-10T01:35:52.851Z,996.75
2019-02-10T01:36:52.812Z,996.73
2019-02-10T01:37:52.900Z,996.72
2019-02-10T01:38:52.570Z,996.69
2019-02-10T01:39:54.276Z,996.67
2019-02-10T01:40:52.734Z,996.64
2019-02-10T01:41:52.723Z,996.65
2019-02-10T01:42:52.876Z,996.59
2019-02-10T01:43:52.832Z,996.55
2019-02-10T01:44:52.908Z,996.57
2019-02-10T01:45:52.957Z,996.51
2019-02-10T01:46:52.982Z,996.47
2019-02-10T01:47:53.035Z,996.44
2019-02-10T01:48:53.090Z,996.43
2019-02-10T01:49:53.138Z,996.43
2019-02-10T01:50:53.191Z,996.39
2019-02-10T01:51:53.303Z,996.34
2019-02-10T01:52:53.293Z,996.29
2019-02-10T01:53:53.346Z,996.23
2019-02-10T01:54:53.398Z,996.20
2019-02-10T01:55:53.449Z,996.17
2019-02-10T01:56:53.502Z,996.12
2019-02-10T01:57:53.554Z,996.10
2019-02-10T01:58:53.607Z,996.07
2019-02-10T01:59:53.658Z,996.05
2019-02-10T02:00:53.710Z,996.05
2019-02-10T02:01:53.765Z,996.01
2019-02-10T02:02:53.813Z,996.05
2019-02-10T02:03:53.868Z,996.02
2019-02-10T02:04:53.919Z,996.03
2019-02-10T02:05:53.977Z,995.97
2019-02-10T02:06:57.946Z,995.98
2019-02-10T02:07:54.075Z,995.91
2019-02-10T02:08:54.126Z,995.87
2019-02-10T02:09:54.178Z,995.83
2019-02-10T02:10:54.231Z,995.80
2019-02-10T02:11:54.283Z,995.85
2019-02-10T02:12:54.335Z,995.80
2019-02-10T02:13:54.389Z,995.78
2019-02-10T02:14:54.441Z,995.72
2019-02-10T02:15:54.491Z,995.70
2019-02-10T02:16:54.545Z,995.67
2019-02-10T02:17:54.599Z,995.69
2019-02-10T02:18:54.649Z,995.74
2019-02-10T02:19:54.702Z,995.68
2019-02-10T02:20:54.752Z,995.67
2019-02-10T02:21:54.807Z,995.65
2019-02-10T02:22:54.859Z,995.63
2019-02-10T02:23:54.909Z,995.64
2019-02-10T02:24:54.961Z,995.61
2019-02-10T02:25:55.020Z,995.63
2019-02-10T02:26:55.066Z,995.56
2019-02-10T02:27:55.117Z,995.55
2019-02-10T02:28:55.181Z,995.50
2019-02-10T02:29:55.223Z,995.50
2019-02-10T02:30:55.277Z,995.48
2019-02-10T02:31:55.328Z,995.48
2019-02-10T02:32:55.379Z,995.46
2019-02-10T02:33:55.432Z,995.37
2019-02-10T02:34:55.483Z,995.37
2019-02-10T02:35:55.536Z,995.33
2019-02-10T02:36:55.590Z,995.27
2019-02-10T02:37:55.654Z,995.14
2019-02-10T02:38:55.692Z,995.12
2019-02-10T02:39:55.779Z,995.10
2019-02-10T02:40:55.797Z,995.15
2019-02-10T02:41:55.850Z,995.04
2019-02-10T02:42:55.902Z,994.97
2019-02-10T02:43:55.955Z,994.96
2019-02-10T02:44:56.007Z,994.94
2019-02-10T02:45:56.060Z,994.94
2019-02-10T02:46:56.111Z,994.85
2019-02-10T02:47:56.163Z,994.86
2019-02-10T02:48:56.214Z,994.89
2019-02-10T02:49:56.268Z,994.78
2019-02-10T02:50:56.321Z,994.71
2019-02-10T02:51:56.374Z,994.71
2019-02-10T02:52:56.431Z,994.69
2019-02-10T02:53:56.479Z,994.65
2019-02-10T02:54:56.530Z,994.65
2019-02-10T02:55:56.582Z,994.72
2019-02-10T02:56:56.635Z,994.57
2019-02-10T02:57:56.687Z,994.58
2019-02-10T02:58:56.743Z,994.47
2019-02-10T02:59:56.790Z,994.45
2019-02-10T03:00:56.844Z,994.36
2019-02-10T03:01:56.897Z,994.38
2019-02-10T03:02:56.949Z,994.32
2019-02-10T03:03:57.001Z,994.33
2019-02-10T03:04:57.053Z,994.33
2019-02-10T03:05:57.107Z,994.32
2019-02-10T03:06:57.161Z,994.30
2019-02-10T03:07:57.210Z,994.32
2019-02-10T03:08:57.262Z,994.26
2019-02-10T03:09:57.316Z,994.27
2019-02-10T03:10:57.369Z,994.22
2019-02-10T03:11:57.420Z,994.19
2019-02-10T03:12:57.474Z,994.12
2019-02-10T03:13:57.524Z,994.15
2019-02-10T03:14:57.578Z,994.12
2019-02-10T03:15:57.627Z,994.17
2019-02-10T03:16:57.680Z,994.14
2019-02-10T03:17:57.733Z,994.07
2019-02-10T03:18:57.786Z,994.04
2019-02-10T03:19:57.839Z,994.06
2019-02-10T03:20:57.890Z,994.02
2019-02-10T03:21:57.944Z,994.01
2019-02-10T03:22:57.998Z,994.02
2019-02-10T03:23:58.049Z,993.89
2019-02-10T03:24:58.101Z,993.97
2019-02-10T03:25:58.154Z,993.91
2019-02-10T03:26:58.207Z,993.86
2019-02-10T03:27:58.259Z,993.82
2019-02-10T03:28:58.311Z,993.81
2019-02-10T03:29:58.365Z,993.71
2019-02-10T03:30:58.419Z,993.64
2019-02-10T03:31:58.472Z,993.60
2019-02-10T03:32:58.521Z,993.65
2019-02-10T03:33:58.572Z,993.50
2019-02-10T03:34:58.653Z,993.50
2019-02-10T03:35:58.678Z,993.46
2019-02-10T03:36:58.732Z,993.44
2019-02-10T03:37:58.785Z,993.38
2019-02-10T03:38:58.839Z,993.34
2019-02-10T03:39:58.888Z,993.34
2019-02-10T03:40:58.942Z,993.27
2019-02-10T03:41:59.005Z,993.22
2019-02-10T03:42:59.048Z,993.20
2019-02-10T03:43:59.099Z,993.14
2019-02-10T03:44:59.153Z,993.14
2019-02-10T03:45:59.206Z,993.07
2019-02-10T03:46:59.259Z,993.06
2019-02-10T03:47:59.311Z,992.99
2019-02-10T03:48:59.364Z,992.97
2019-02-10T03:49:59.429Z,992.91
2019-02-10T03:50:59.482Z,992.89
2019-02-10T03:51:59.524Z,992.81
2019-02-10T03:52:59.578Z,992.75
2019-02-10T03:53:59.635Z,992.76
2019-02-10T03:54:59.685Z,992.72
2019-02-10T03:55:59.733Z,992.67
2019-02-10T03:56:59.788Z,992.71
2019-02-10T03:57:59.841Z,992.66
2019-02-10T03:58:59.895Z,992.62
2019-02-10T03:59:59.957Z,992.60
2019-02-10T04:00:59.998Z,992.60
2019-02-10T04:02:00.070Z,992.59
2019-02-10T04:03:00.106Z,992.54
2019-02-10T04:04:00.157Z,992.54
2019-02-10T04:05:00.283Z,992.48
2019-02-10T04:06:00.264Z,992.48
2019-02-10T04:07:00.317Z,992.42
2019-02-10T04:08:00.371Z,992.37
2019-02-10T04:09:00.423Z,992.40
2019-02-10T04:10:00.534Z,992.32
2019-02-10T04:11:00.531Z,992.29
2019-02-10T04:12:00.582Z,992.24
2019-02-10T04:13:00.641Z,992.18
2019-02-10T04:14:00.690Z,992.18
2019-02-10T04:15:00.751Z,992.19
2019-02-10T04:16:00.796Z,992.06
2019-02-10T04:17:00.849Z,992.07
2019-02-10T04:18:00.902Z,992.01
2019-02-10T04:19:00.959Z,991.94
2019-02-10T04:20:01.008Z,991.90
2019-02-10T04:21:01.061Z,991.92
2019-02-10T04:22:01.113Z,991.82
2019-02-10T04:23:01.167Z,991.85
2019-02-10T04:24:01.220Z,991.81
2019-02-10T04:25:01.275Z,991.82
2019-02-10T04:26:01.326Z,991.72
2019-02-10T04:27:01.380Z,991.77
2019-02-10T04:28:01.434Z,991.67
2019-02-10T04:29:01.487Z,991.65
2019-02-10T04:30:01.541Z,991.63
2019-02-10T04:31:01.593Z,991.52
2019-02-10T04:32:01.645Z,991.49
2019-02-10T04:33:01.699Z,991.38
2019-02-10T04:34:01.751Z,991.53
2019-02-10T04:35:01.815Z,991.39
2019-02-10T04:36:01.859Z,991.36
2019-02-10T04:37:01.913Z,991.46
2019-02-10T04:38:01.966Z,991.41
2019-02-10T04:39:02.021Z,991.36
2019-02-10T04:40:02.074Z,991.46
2019-02-10T04:41:02.126Z,991.39
2019-02-10T04:42:02.184Z,991.28
2019-02-10T04:43:02.261Z,991.36
2019-02-10T04:44:02.285Z,991.23
2019-02-10T04:45:02.341Z,991.25
2019-02-10T04:46:02.392Z,991.21
2019-02-10T04:47:02.445Z,991.18
2019-02-10T04:48:02.500Z,991.15
2019-02-10T04:49:02.551Z,991.17
2019-02-10T04:50:02.610Z,991.11
2019-02-10T04:51:02.662Z,991.05
2019-02-10T04:52:02.716Z,990.99
2019-02-10T04:53:02.767Z,990.96
2019-02-10T04:54:02.819Z,990.81
2019-02-10T04:55:02.875Z,990.95
2019-02-10T04:56:02.929Z,990.76
2019-02-10T04:57:02.979Z,990.81
2019-02-10T04:58:03.032Z,990.79
2019-02-10T04:59:03.088Z,990.76
2019-02-10T05:00:03.144Z,990.83
2019-02-10T05:01:03.194Z,990.77
2019-02-10T05:02:03.252Z,990.78
2019-02-10T05:03:03.300Z,990.63
2019-02-10T05:04:03.353Z,990.70
2019-02-10T05:05:03.409Z,990.71
2019-02-10T05:06:03.461Z,990.59
2019-02-10T05:07:03.515Z,990.59
2019-02-10T05:08:03.568Z,990.63
2019-02-10T05:09:03.622Z,990.51
2019-02-10T05:10:03.678Z,990.58
2019-02-10T05:11:03.729Z,990.41
2019-02-10T05:12:03.786Z,990.41
2019-02-10T05:13:03.842Z,990.36
2019-02-10T05:14:03.893Z,990.37
2019-02-10T05:15:03.945Z,990.27
2019-02-10T05:16:03.998Z,990.21
2019-02-10T05:17:04.057Z,990.24
2019-02-10T05:18:04.106Z,990.17
2019-02-10T05:19:04.170Z,990.19
2019-02-10T05:20:04.214Z,990.06
2019-02-10T05:21:04.266Z,990.10
2019-02-10T05:22:04.321Z,989.95
2019-02-10T05:23:04.376Z,990.10
2019-02-10T05:24:04.428Z,990.10
2019-02-10T05:25:04.511Z,990.04
2019-02-10T05:26:04.534Z,989.90
2019-02-10T05:27:04.606Z,989.80
2019-02-10T05:28:04.660Z,990.05
2019-02-10T05:29:04.715Z,989.89
2019-02-10T05:30:04.772Z,989.82
2019-02-10T05:31:04.819Z,989.96
2019-02-10T05:32:04.873Z,989.83
2019-02-10T05:33:04.919Z,989.82
2019-02-10T05:34:04.965Z,989.90
2019-02-10T05:35:05.029Z,989.89
2019-02-10T05:36:05.072Z,989.77
2019-02-10T05:37:05.127Z,989.70
2019-02-10T05:38:05.240Z,989.78
2019-02-10T05:39:05.239Z,989.66
2019-02-10T05:40:05.288Z,989.59
2019-02-10T05:41:05.343Z,989.61
2019-02-10T05:42:05.396Z,989.56
2019-02-10T05:43:05.451Z,989.61
2019-02-10T05:44:05.503Z,989.62
2019-02-10T05:45:05.556Z,989.51
2019-02-10T05:46:05.611Z,989.47
2019-02-10T05:47:05.666Z,989.48
2019-02-10T05:48:05.719Z,989.49
2019-02-10T05:49:05.773Z,989.37
2019-02-10T05:50:05.836Z,989.34
2019-02-10T05:51:05.881Z,989.38
2019-02-10T05:52:05.955Z,989.24
2019-02-10T05:53:05.988Z,989.09
2019-02-10T05:54:06.042Z,989.09
2019-02-10T05:55:06.095Z,989.21
2019-02-10T05:56:06.149Z,989.14
2019-02-10T05:57:06.203Z,989.10
2019-02-10T05:58:06.256Z,989.08
2019-02-10T05:59:06.313Z,989.05
2019-02-10T06:00:06.365Z,988.97
2019-02-10T06:01:06.419Z,988.93
2019-02-10T06:02:06.473Z,988.89
2019-02-10T06:03:06.527Z,988.80
2019-02-10T06:04:06.580Z,988.97
2019-02-10T06:05:06.633Z,988.93
2019-02-10T06:06:06.688Z,988.76
2019-02-10T06:07:06.744Z,988.72
2019-02-10T06:08:12.932Z,988.88
2019-02-10T06:09:06.856Z,988.73
2019-02-10T06:10:06.904Z,988.78
2019-02-10T06:11:06.958Z,988.61
2019-02-10T06:12:07.014Z,988.63
2019-02-10T06:13:07.064Z,988.68
2019-02-10T06:14:07.127Z,988.66
2019-02-10T06:15:07.172Z,988.54
2019-02-10T06:16:07.226Z,988.63
2019-02-10T06:17:07.284Z,988.47
2019-02-10T06:18:07.335Z,988.39
2019-02-10T06:19:07.389Z,988.46
2019-02-10T06:20:07.442Z,988.23
2019-02-10T06:21:07.497Z,988.36
2019-02-10T06:22:07.550Z,988.34
2019-02-10T06:23:07.605Z,988.36
2019-02-10T06:24:07.657Z,988.48
2019-02-10T06:25:07.823Z,988.16
2019-02-10T06:26:07.765Z,988.32
2019-02-10T06:27:07.820Z,988.25
2019-02-10T06:28:07.874Z,988.29
2019-02-10T06:29:07.931Z,988.12
2019-02-10T06:30:07.985Z,988.13
2019-02-10T06:31:08.035Z,988.24
2019-02-10T06:32:08.090Z,988.13
2019-02-10T06:33:08.143Z,988.17
2019-02-10T06:34:08.202Z,987.85
2019-02-10T06:35:08.255Z,988.07
2019-02-10T06:36:08.306Z,987.99
2019-02-10T06:37:08.358Z,988.00
2019-02-10T06:38:08.412Z,988.09
2019-02-10T06:39:08.468Z,988.06
2019-02-10T06:40:08.519Z,987.91
2019-02-10T06:41:08.575Z,987.83
2019-02-10T06:42:08.628Z,987.86
2019-02-10T06:43:08.682Z,987.88
2019-02-10T06:44:08.735Z,987.96
2019-02-10T06:45:08.788Z,987.77
2019-02-10T06:46:08.844Z,987.92
2019-02-10T06:47:08.900Z,987.67
2019-02-10T06:48:08.951Z,987.83
2019-02-10T06:49:09.005Z,987.75
2019-02-10T06:50:09.058Z,987.79
2019-02-10T06:51:09.112Z,987.86
2019-02-10T06:52:09.167Z,987.73
2019-02-10T06:53:09.221Z,987.74
2019-02-10T06:54:09.274Z,987.69
2019-02-10T06:55:09.330Z,987.66
2019-02-10T06:56:09.382Z,987.75
2019-02-10T06:57:09.436Z,987.72
2019-02-10T06:58:09.489Z,987.57
2019-02-10T06:59:09.545Z,987.62
2019-02-10T07:00:09.598Z,987.66
2019-02-10T07:01:09.652Z,987.71
2019-02-10T07:02:09.704Z,987.65
2019-02-10T07:03:09.762Z,987.63
2019-02-10T07:04:09.814Z,987.48
2019-02-10T07:05:09.868Z,987.60
2019-02-10T07:06:09.921Z,987.47
2019-02-10T07:07:09.977Z,987.59
2019-02-10T07:08:10.028Z,987.41
2019-02-10T07:09:10.082Z,987.50
2019-02-10T07:10:10.137Z,987.38
2019-02-10T07:11:10.192Z,987.23
2019-02-10T07:12:10.243Z,987.26
2019-02-10T07:13:10.302Z,987.32
2019-02-10T07:14:10.351Z,987.23
2019-02-10T07:15:10.406Z,987.28
2019-02-10T07:16:10.460Z,987.25
2019-02-10T07:17:10.514Z,987.18
2019-02-10T07:18:10.567Z,987.07
2019-02-10T07:19:10.622Z,987.08
2019-02-10T07:20:10.675Z,987.05
2019-02-10T07:21:10.751Z,987.00
2019-02-10T07:22:10.783Z,986.99
2019-02-10T07:23:10.837Z,986.91
2019-02-10T07:24:10.891Z,987.04
2019-02-10T07:25:10.992Z,986.89
2019-02-10T07:26:10.999Z,986.88
2019-02-10T07:27:11.054Z,986.89
2019-02-10T07:28:11.105Z,986.93
2019-02-10T07:29:11.161Z,986.72
2019-02-10T07:30:11.214Z,986.83
2019-02-10T07:31:11.269Z,986.73
2019-02-10T07:32:11.335Z,986.66
2019-02-10T07:33:11.374Z,986.85
2019-02-10T07:34:11.430Z,986.78
2019-02-10T07:35:11.483Z,986.79
2019-02-10T07:36:11.537Z,986.71
2019-02-10T07:37:11.591Z,986.77
2019-02-10T07:38:11.644Z,986.68
2019-02-10T07:39:11.699Z,986.70
2019-02-10T07:40:11.753Z,986.65
2019-02-10T07:41:11.811Z,986.59
2019-02-10T07:42:11.859Z,986.78
2019-02-10T07:43:11.915Z,986.74
2019-02-10T07:44:11.967Z,986.62
2019-02-10T07:45:12.022Z,986.44
2019-02-10T07:46:12.077Z,986.36
2019-02-10T07:47:12.134Z,986.39
2019-02-10T07:48:12.186Z,986.41
2019-02-10T07:49:12.238Z,986.30
2019-02-10T07:50:12.292Z,986.47
2019-02-10T07:51:12.347Z,986.29
2019-02-10T07:52:12.399Z,986.34
2019-02-10T07:53:12.457Z,986.41
2019-02-10T07:54:12.508Z,986.25
2019-02-10T07:55:12.563Z,986.31
2019-02-10T07:56:12.617Z,986.53
2019-02-10T07:57:12.672Z,986.27
2019-02-10T07:58:12.725Z,986.09
2019-02-10T07:59:12.778Z,986.18
2019-02-10T08:00:12.837Z,985.96
2019-02-10T08:01:12.887Z,985.95
2019-02-10T08:02:12.943Z,986.02
2019-02-10T08:03:12.996Z,986.01
2019-02-10T08:04:13.048Z,985.89
2019-02-10T08:05:13.108Z,986.06
2019-02-10T08:06:13.157Z,986.01
2019-02-10T08:07:13.212Z,985.99
2019-02-10T08:08:13.266Z,985.93
2019-02-10T08:09:13.319Z,985.87
2019-02-10T08:10:13.374Z,985.81
2019-02-10T08:11:13.430Z,986.21
2019-02-10T08:12:13.483Z,985.95
2019-02-10T08:13:13.538Z,985.96
2019-02-10T08:14:13.591Z,986.07
2019-02-10T08:15:13.646Z,985.91
2019-02-10T08:16:13.700Z,986.00
2019-02-10T08:17:13.755Z,985.93
2019-02-10T08:18:13.808Z,985.94
2019-02-10T08:19:13.863Z,986.12
2019-02-10T08:20:13.917Z,985.97
2019-02-10T08:21:13.972Z,985.85
2019-02-10T08:22:14.033Z,985.97
2019-02-10T08:23:14.082Z,985.97
2019-02-10T08:24:14.136Z,985.98
2019-02-10T08:25:14.190Z,986.00
2019-02-10T08:26:14.248Z,985.87
2019-02-10T08:27:14.310Z,985.85
2019-02-10T08:28:14.362Z,986.07
2019-02-10T08:29:14.409Z,985.65
2019-02-10T08:30:14.461Z,985.70
2019-02-10T08:31:14.516Z,985.90
2019-02-10T08:32:14.569Z,985.65
2019-02-10T08:33:14.632Z,985.56
2019-02-10T08:34:14.679Z,985.79
2019-02-10T08:35:14.735Z,985.55
2019-02-10T08:36:14.786Z,985.69
2019-02-10T08:37:14.842Z,985.74
2019-02-10T08:38:14.896Z,985.58
2019-02-10T08:39:14.950Z,985.39
2019-02-10T08:40:15.005Z,985.52
2019-02-10T08:41:15.060Z,985.51
2019-02-10T08:42:15.117Z,985.58
2019-02-10T08:43:15.172Z,985.57
2019-02-10T08:44:15.223Z,985.78
2019-02-10T08:45:15.646Z,985.72
2019-02-10T08:46:15.333Z,985.49
2019-02-10T08:47:15.386Z,985.41
2019-02-10T08:48:15.440Z,985.50
2019-02-10T08:49:15.494Z,985.65
2019-02-10T08:50:15.550Z,985.55
2019-02-10T08:51:15.612Z,985.58
2019-02-10T08:52:15.659Z,985.53
2019-02-10T08:53:15.713Z,985.39
2019-02-10T08:54:15.768Z,985.49
2019-02-10T08:55:15.825Z,985.38
2019-02-10T08:56:15.874Z,985.43
2019-02-10T08:57:15.930Z,985.33
2019-02-10T08:58:15.985Z,985.52
2019-02-10T08:59:16.040Z,985.33
2019-02-10T09:00:16.109Z,985.25
2019-02-10T09:01:16.147Z,985.19
2019-02-10T09:02:16.204Z,985.16
2019-02-10T09:03:19.598Z,985.14
2019-02-10T09:04:16.309Z,985.27
2019-02-10T09:05:16.364Z,985.16
2019-02-10T09:06:16.423Z,985.33
2019-02-10T09:07:16.474Z,985.19
2019-02-10T09:08:16.528Z,985.04
2019-02-10T09:09:16.583Z,985.41
2019-02-10T09:10:16.637Z,985.28
2019-02-10T09:11:16.690Z,985.25
2019-02-10T09:12:16.746Z,985.21
2019-02-10T09:13:16.805Z,985.20
2019-02-10T09:14:16.853Z,985.23
2019-02-10T09:15:16.908Z,985.15
2019-02-10T09:16:16.961Z,985.24
2019-02-10T09:17:17.015Z,985.18
2019-02-10T09:18:17.068Z,985.28
2019-02-10T09:19:17.126Z,985.27
2019-02-10T09:20:17.177Z,985.16
2019-02-10T09:21:17.232Z,985.15
2019-02-10T09:22:17.285Z,985.10
2019-02-10T09:23:17.341Z,985.17
2019-02-10T09:24:17.398Z,985.09
2019-02-10T09:25:17.450Z,985.16
2019-02-10T09:26:17.505Z,985.08
2019-02-10T09:27:17.557Z,985.11
2019-02-10T09:28:17.609Z,985.16
2019-02-10T09:29:17.664Z,984.94
2019-02-10T09:30:17.718Z,985.00
2019-02-10T09:31:17.773Z,984.64
2019-02-10T09:32:17.827Z,985.04
2019-02-10T09:33:17.880Z,985.20
2019-02-10T09:34:17.936Z,984.88
2019-02-10T09:35:17.988Z,985.00
2019-02-10T09:36:18.043Z,984.92
2019-02-10T09:37:18.098Z,984.94
2019-02-10T09:38:18.153Z,984.78
2019-02-10T09:39:18.207Z,984.88
2019-02-10T09:40:18.260Z,984.91
2019-02-10T09:41:18.314Z,984.83
2019-02-10T09:42:18.368Z,984.71
2019-02-10T09:43:18.423Z,984.74
2019-02-10T09:44:18.476Z,984.50
2019-02-10T09:45:18.531Z,984.85
2019-02-10T09:46:18.585Z,984.82
2019-02-10T09:47:18.640Z,984.72
2019-02-10T09:48:18.695Z,984.89
2019-02-10T09:49:18.748Z,984.92
2019-02-10T09:50:18.802Z,984.69
2019-02-10T09:51:18.856Z,984.90
2019-02-10T09:52:18.910Z,984.49
2019-02-10T09:53:18.969Z,984.63
2019-02-10T09:54:19.019Z,984.62
2019-02-10T09:55:19.073Z,984.63
2019-02-10T09:56:19.125Z,984.65
2019-02-10T09:57:19.181Z,984.58
2019-02-10T09:58:19.235Z,984.44
2019-02-10T09:59:19.293Z,984.21
2019-02-10T10:00:19.343Z,984.63
2019-02-10T10:01:19.410Z,984.49
2019-02-10T10:02:19.450Z,984.54
2019-02-10T10:03:19.506Z,984.44
2019-02-10T10:04:19.559Z,984.43
2019-02-10T10:05:19.612Z,984.48
2019-02-10T10:06:19.668Z,984.51
2019-02-10T10:07:19.721Z,984.49
2019-02-10T10:08:19.774Z,984.38
2019-02-10T10:09:19.899Z,984.49
2019-02-10T10:10:19.884Z,984.45
2019-02-10T10:11:19.938Z,984.36
2019-02-10T10:12:19.991Z,984.37
2019-02-10T10:13:20.049Z,984.43
2019-02-10T10:14:20.101Z,984.30
2019-02-10T10:15:20.155Z,984.43
2019-02-10T10:16:20.209Z,984.23
2019-02-10T10:17:20.263Z,984.16
2019-02-10T10:18:20.317Z,984.36
2019-02-10T10:19:20.374Z,984.39
2019-02-10T10:20:20.484Z,984.43
2019-02-10T10:21:20.479Z,984.35
2019-02-10T10:22:20.534Z,984.25
2019-02-10T10:23:20.588Z,984.32
2019-02-10T10:24:20.642Z,984.23
2019-02-10T10:25:20.699Z,984.23
2019-02-10T10:26:20.751Z,984.17
2019-02-10T10:27:20.806Z,984.13
2019-02-10T10:28:20.860Z,983.96
2019-02-10T10:29:20.913Z,984.04
2019-02-10T10:30:20.973Z,984.10
2019-02-10T10:31:21.022Z,984.10
2019-02-10T10:32:21.076Z,984.10
2019-02-10T10:33:21.137Z,984.20
2019-02-10T10:34:21.187Z,984.13
2019-02-10T10:35:21.239Z,984.06
2019-02-10T10:36:21.294Z,984.09
2019-02-10T10:37:21.351Z,984.06
2019-02-10T10:38:21.416Z,984.00
2019-02-10T10:39:27.266Z,984.25
2019-02-10T10:40:21.510Z,983.90
2019-02-10T10:41:22.237Z,984.09
2019-02-10T10:42:21.621Z,984.02
2019-02-10T10:43:22.277Z,984.14
2019-02-10T10:44:21.728Z,984.08
2019-02-10T10:45:21.783Z,984.03
2019-02-10T10:46:21.836Z,983.96
2019-02-10T10:47:21.895Z,983.96
2019-02-10T10:48:21.945Z,983.96
2019-02-10T10:49:21.999Z,983.92
2019-02-10T10:50:22.054Z,984.02
2019-02-10T10:51:22.108Z,983.90
2019-02-10T10:52:22.165Z,983.84
2019-02-10T10:53:22.216Z,983.88
2019-02-10T10:54:22.595Z,983.82
2019-02-10T10:55:22.654Z,983.76
2019-02-10T10:56:22.379Z,983.85
2019-02-10T10:57:25.107Z,983.87
2019-02-10T10:58:22.490Z,983.73
2019-02-10T10:59:22.544Z,983.81
2019-02-10T11:00:22.598Z,983.81
2019-02-10T11:01:25.308Z,983.86
2019-02-10T11:02:22.709Z,983.85
2019-02-10T11:03:22.761Z,983.77
2019-02-10T11:04:22.815Z,984.04
2019-02-10T11:05:22.871Z,983.88
2019-02-10T11:06:22.923Z,983.83
2019-02-10T11:07:23.013Z,983.91
2019-02-10T11:08:23.073Z,983.79
2019-02-10T11:09:23.087Z,983.69
2019-02-10T11:10:23.140Z,983.77
2019-02-10T11:11:23.196Z,983.66
2019-02-10T11:12:23.249Z,983.69
2019-02-10T11:13:23.302Z,983.68
2019-02-10T11:14:23.357Z,983.75
2019-02-10T11:15:23.412Z,983.67
2019-02-10T11:16:23.465Z,983.61
2019-02-10T11:17:23.520Z,983.27
2019-02-10T11:18:23.579Z,983.47
2019-02-10T11:19:23.629Z,983.59
2019-02-10T11:20:23.683Z,983.66
2019-02-10T11:21:23.737Z,983.65
2019-02-10T11:22:23.791Z,983.47
2019-02-10T11:23:23.846Z,983.51
2019-02-10T11:24:28.766Z,983.42
2019-02-10T11:25:23.953Z,983.48
2019-02-10T11:26:24.009Z,983.48
2019-02-10T11:27:24.063Z,983.33
2019-02-10T11:28:24.116Z,983.42
2019-02-10T11:29:24.171Z,983.30
2019-02-10T11:30:24.226Z,983.36
2019-02-10T11:31:24.280Z,983.30
2019-02-10T11:32:24.333Z,983.28
2019-02-10T11:33:24.388Z,983.25
2019-02-10T11:34:24.443Z,983.27
2019-02-10T11:35:24.498Z,983.15
2019-02-10T11:36:24.550Z,983.18
2019-02-10T11:37:26.900Z,983.25
2019-02-10T11:38:24.660Z,983.22
2019-02-10T11:39:24.713Z,983.29
2019-02-10T11:40:24.768Z,983.16
2019-02-10T11:41:24.821Z,983.17
2019-02-10T11:42:24.876Z,983.12
2019-02-10T11:43:25.378Z,983.22
2019-02-10T11:44:24.989Z,983.10
2019-02-10T11:45:25.040Z,983.07
2019-02-10T11:46:25.095Z,983.16
2019-02-10T11:47:25.148Z,983.12
2019-02-10T11:48:25.204Z,983.15
2019-02-10T11:49:25.291Z,983.19
2019-02-10T11:50:25.313Z,983.09
2019-02-10T11:51:25.367Z,983.12
2019-02-10T11:52:25.420Z,983.17
2019-02-10T11:53:25.476Z,983.17
2019-02-10T11:54:25.529Z,983.18
2019-02-10T11:55:25.835Z,983.30
2019-02-10T11:56:25.637Z,983.05
2019-02-10T11:57:25.693Z,983.08
2019-02-10T11:58:25.749Z,983.11
2019-02-10T11:59:25.803Z,983.10
2019-02-10T12:00:25.858Z,983.00
2019-02-10T12:01:25.911Z,982.87
2019-02-10T12:02:25.965Z,983.00
2019-02-10T12:03:26.020Z,982.88
2019-02-10T12:04:26.074Z,982.93
2019-02-10T12:05:26.129Z,982.83
2019-02-10T12:06:26.184Z,982.93
2019-02-10T12:07:26.238Z,982.88
2019-02-10T12:08:35.001Z,982.85
2019-02-10T12:09:26.363Z,982.88
2019-02-10T12:10:26.403Z,983.06
2019-02-10T12:11:26.457Z,982.94
2019-02-10T12:12:26.511Z,982.72
2019-02-10T12:13:26.568Z,982.79
2019-02-10T12:14:27.027Z,982.78
2019-02-10T12:15:26.677Z,982.74
2019-02-10T12:16:26.731Z,982.97
2019-02-10T12:17:26.786Z,982.81
2019-02-10T12:18:26.842Z,982.79
2019-02-10T12:19:26.898Z,982.71
2019-02-10T12:20:26.953Z,982.82
2019-02-10T12:21:27.007Z,982.80
2019-02-10T12:22:27.063Z,982.69
2019-02-10T12:23:27.120Z,982.86
2019-02-10T12:24:27.173Z,982.78
2019-02-10T12:25:27.228Z,982.84
2019-02-10T12:26:27.284Z,982.87
2019-02-10T12:27:27.339Z,982.69
2019-02-10T12:28:27.395Z,982.85
2019-02-10T12:29:27.448Z,982.91